createdAt,value
2023-05-23T00:01:47.129Z,101920.97
2023-05-23T00:06:53.517Z,101915.06
2023-05-23T00:11:56.779Z,101903.34
2023-05-23T00:16:59.657Z,101908.81
2023-05-23T00:22:01.346Z,101911.81
2023-05-23T00:27:03.265Z,101914.72
2023-05-23T00:32:05.111Z,101915.91
2023-05-23T00:37:07.141Z,101916.59
2023-05-23T00:42:09.076Z,101913.19
2023-05-23T00:47:13.896Z,101927.44
2023-05-23T00:52:16.093Z,101926.84
2023-05-23T00:57:18.783Z,101928.66
2023-05-23T01:02:21.661Z,101936.81
2023-05-23T01:07:23.513Z,101930.69
2023-05-23T01:12:56.636Z,101927.19
2023-05-23T01:18:08.480Z,101931.81
2023-05-23T01:23:19.604Z,101935.09
2023-05-23T01:28:23.981Z,101935.22
2023-05-23T01:33:27.678Z,101936.06
2023-05-23T01:38:29.670Z,101942.75
2023-05-23T01:43:31.640Z,101943.47
2023-05-23T01:48:35.240Z,101944.84
2023-05-23T01:53:37.625Z,101950.16
2023-05-23T01:58:39.616Z,101949.50
2023-05-23T02:03:42.029Z,101951.81
2023-05-23T02:08:43.782Z,101968.19
2023-05-23T02:13:45.543Z,101962.00
2023-05-23T02:18:47.718Z,101969.94
2023-05-23T02:23:52.214Z,101972.50
2023-05-23T02:28:54.078Z,101976.50
2023-05-23T02:33:55.996Z,101980.22
2023-05-23T02:38:58.948Z,101987.19
2023-05-23T02:44:00.683Z,101984.16
2023-05-23T02:49:02.931Z,101986.91
2023-05-23T02:54:04.578Z,101981.25
2023-05-23T02:59:09.524Z,101989.28
2023-05-23T03:04:14.062Z,101994.16
2023-05-23T03:09:21.211Z,101989.13
2023-05-23T03:14:23.141Z,102010.34
2023-05-23T03:19:24.976Z,102013.56
2023-05-23T03:24:26.722Z,102022.56
2023-05-23T03:29:28.398Z,102022.38
2023-05-23T03:34:30.493Z,102027.25
2023-05-23T03:39:32.438Z,102024.13
2023-05-23T03:44:34.318Z,102032.78
2023-05-23T03:49:38.117Z,102046.81
2023-05-23T03:54:40.348Z,102046.28
2023-05-23T03:59:42.815Z,102046.97
2023-05-23T04:04:47.679Z,102052.84
2023-05-23T04:09:50.133Z,102052.16
2023-05-23T04:14:53.461Z,102056.84
2023-05-23T04:19:55.536Z,102061.00
2023-05-23T04:24:57.841Z,102067.06
2023-05-23T04:30:01.772Z,102071.53
2023-05-23T04:35:04.634Z,102087.09
2023-05-23T04:40:08.386Z,102089.91
2023-05-23T04:45:21.739Z,102098.34
2023-05-23T04:50:34.287Z,102096.13
2023-05-23T04:55:36.342Z,102091.59
2023-05-23T05:00:38.625Z,102105.13
2023-05-23T05:05:40.813Z,102099.75
2023-05-23T05:10:43.037Z,102109.97
2023-05-23T05:15:46.433Z,102111.50
2023-05-23T05:20:49.904Z,102110.81
2023-05-23T05:25:51.879Z,102119.94
2023-05-23T05:30:55.423Z,102127.56
2023-05-23T05:35:57.817Z,102121.56
2023-05-23T05:41:00.423Z,102124.81
2023-05-23T05:46:06.734Z,102143.19
2023-05-23T05:51:09.105Z,102142.13
2023-05-23T05:56:10.956Z,102158.03
2023-05-23T06:01:17.774Z,102161.50
2023-05-23T06:06:20.123Z,102155.63
2023-05-23T06:11:22.733Z,102170.84
2023-05-23T06:16:24.605Z,102159.13
2023-05-23T06:21:26.491Z,102164.63
2023-05-23T06:26:28.348Z,102171.25
2023-05-23T06:31:30.064Z,102178.47
2023-05-23T06:36:32.933Z,102166.03
2023-05-23T06:41:34.546Z,102187.69
2023-05-23T06:46:38.990Z,102182.31
2023-05-23T06:51:42.173Z,102174.88
2023-05-23T06:56:44.406Z,102170.00
2023-05-23T07:01:46.373Z,102183.50
2023-05-23T07:06:51.115Z,102184.88
2023-05-23T07:11:52.889Z,102190.94
2023-05-23T07:16:55.091Z,102191.81
2023-05-23T07:21:56.835Z,102210.53
2023-05-23T07:26:58.848Z,102198.56
2023-05-23T07:32:01.548Z,102210.03
2023-05-23T07:37:04.212Z,102207.25
2023-05-23T07:42:13.440Z,102216.25
2023-05-23T07:47:15.690Z,102218.50
2023-05-23T07:52:18.192Z,102223.50
2023-05-23T07:57:20.507Z,102224.47
2023-05-23T08:02:25.860Z,102226.94
2023-05-23T08:07:28.714Z,102233.72
2023-05-23T08:12:34.512Z,102236.63
2023-05-23T08:17:43.242Z,102238.00
2023-05-23T08:22:46.882Z,102235.09
2023-05-23T08:27:49.617Z,102251.09
2023-05-23T08:33:11.635Z,102249.91
2023-05-23T08:38:16.131Z,102249.22
2023-05-23T08:43:29.410Z,102243.81
2023-05-23T08:48:35.055Z,102250.88
2023-05-23T08:53:41.220Z,102253.88
2023-05-23T08:58:44.135Z,102264.81
2023-05-23T09:03:51.124Z,102262.41
2023-05-23T09:09:02.582Z,102274.66
2023-05-23T09:14:05.222Z,102268.75
2023-05-23T09:19:12.806Z,102272.72
2023-05-23T09:24:16.706Z,102283.22
2023-05-23T09:29:21.269Z,102285.19
2023-05-23T09:34:22.972Z,102290.81
2023-05-23T09:39:24.760Z,102298.47
2023-05-23T09:44:26.605Z,102299.16
2023-05-23T09:49:28.467Z,102296.75
2023-05-23T09:54:30.175Z,102309.66
2023-05-23T09:59:35.168Z,102299.09
2023-05-23T10:04:38.243Z,102311.78
2023-05-23T10:09:42.755Z,102310.72
2023-05-23T10:14:49.300Z,102303.47
2023-05-23T10:20:01.004Z,102307.56
2023-05-23T10:25:06.907Z,102309.88
2023-05-23T10:30:09.648Z,102315.34
2023-05-23T10:35:33.279Z,102304.84
2023-05-23T10:40:49.619Z,102323.09
2023-05-23T10:45:52.148Z,102328.66
2023-05-23T10:51:07.060Z,102327.13
2023-05-23T10:56:10.197Z,102320.91
2023-05-23T11:01:19.999Z,102321.69
2023-05-23T11:06:43.350Z,102321.59
2023-05-23T11:11:52.088Z,102326.88
2023-05-23T11:16:53.771Z,102330.16
2023-05-23T11:21:58.994Z,102340.78
2023-05-23T11:27:01.324Z,102330.69
2023-05-23T11:32:15.326Z,102337.72
2023-05-23T11:37:25.949Z,102335.38
2023-05-23T11:42:28.869Z,102338.84
2023-05-23T11:47:30.454Z,102344.38
2023-05-23T11:52:33.109Z,102333.59
2023-05-23T11:57:38.440Z,102332.28
2023-05-23T12:02:41.261Z,102335.84
2023-05-23T12:07:49.157Z,102325.78
2023-05-23T12:12:51.928Z,102340.59
2023-05-23T12:17:57.023Z,102341.31
2023-05-23T12:22:58.752Z,102347.00
2023-05-23T12:28:00.700Z,102343.94
2023-05-23T12:33:09.014Z,102350.78
2023-05-23T12:38:15.117Z,102345.16
2023-05-23T12:43:16.935Z,102358.56
2023-05-23T12:48:20.345Z,102361.41
2023-05-23T12:53:23.820Z,102368.03
2023-05-23T12:58:29.021Z,102371.00
2023-05-23T13:03:32.406Z,102371.00
2023-05-23T13:08:34.016Z,102362.06
2023-05-23T13:13:35.812Z,102372.41
2023-05-23T13:18:37.478Z,102374.59
2023-05-23T13:23:39.117Z,102373.72
2023-05-23T13:28:40.764Z,102367.22
2023-05-23T13:33:42.454Z,102367.03
2023-05-23T13:38:44.245Z,102368.09
2023-05-23T13:43:45.967Z,102371.81
2023-05-23T13:48:48.142Z,102381.75
2023-05-23T13:53:50.195Z,102376.19
2023-05-23T13:58:52.315Z,102363.59
2023-05-23T14:03:54.461Z,102359.41
2023-05-23T14:08:56.402Z,102355.75
2023-05-23T14:13:58.129Z,102358.81
2023-05-23T14:18:59.844Z,102361.88
2023-05-23T14:24:01.551Z,102357.31
2023-05-23T14:29:04.037Z,102370.66
2023-05-23T14:34:05.793Z,102374.88
2023-05-23T14:39:10.982Z,102380.06
2023-05-23T14:44:13.077Z,102368.94
2023-05-23T14:49:15.769Z,102385.94
2023-05-23T14:54:18.529Z,102389.06
2023-05-23T14:59:20.436Z,102379.84
2023-05-23T15:04:22.302Z,102379.59
2023-05-23T15:09:24.390Z,102389.19
2023-05-23T15:14:29.654Z,102379.44
2023-05-23T15:19:31.359Z,102389.50
2023-05-23T15:29:39.815Z,102392.47
2023-05-23T15:34:41.519Z,102388.28
2023-05-23T15:39:43.319Z,102400.94
2023-05-23T15:44:45.045Z,102393.41
2023-05-23T15:49:49.382Z,102397.78
2023-05-23T15:54:50.997Z,102395.38
2023-05-23T15:59:52.710Z,102392.94
2023-05-23T16:04:54.364Z,102386.56
2023-05-23T16:09:56.511Z,102393.31
2023-05-23T16:14:58.255Z,102404.88
2023-05-23T16:20:00.504Z,102397.84
2023-05-23T16:25:02.291Z,102411.38
2023-05-23T16:30:04.666Z,102396.66
2023-05-23T16:35:09.416Z,102403.59
2023-05-23T16:40:11.478Z,102401.75
2023-05-23T16:45:13.221Z,102392.16
2023-05-23T16:50:15.019Z,102389.63
2023-05-23T16:55:16.731Z,102381.41
2023-05-23T17:00:21.580Z,102390.69
2023-05-23T17:05:23.832Z,102386.88
2023-05-23T17:10:26.515Z,102384.56
2023-05-23T17:15:28.162Z,102395.88
2023-05-23T17:20:29.851Z,102402.25
2023-05-23T17:25:31.595Z,102389.09
2023-05-23T17:30:33.403Z,102386.19
2023-05-23T17:35:35.071Z,102388.25
2023-05-23T17:40:36.998Z,102389.38
2023-05-23T17:45:39.059Z,102400.22
2023-05-23T17:50:41.065Z,102394.03
2023-05-23T17:55:43.098Z,102401.38
2023-05-23T18:00:46.887Z,102399.72
2023-05-23T18:05:50.013Z,102396.78
2023-05-23T18:10:51.956Z,102406.22
2023-05-23T18:15:53.727Z,102410.38
2023-05-23T18:20:55.610Z,102400.00
2023-05-23T18:25:57.872Z,102406.31
2023-05-23T18:30:59.611Z,102403.94
2023-05-23T18:36:01.561Z,102404.72
2023-05-23T18:41:03.312Z,102408.38
2023-05-23T18:46:05.006Z,102424.38
2023-05-23T18:51:07.033Z,102419.31
2023-05-23T18:56:08.815Z,102425.16
2023-05-23T19:01:10.457Z,102414.75
2023-05-23T19:06:12.620Z,102411.28
2023-05-23T19:11:14.773Z,102421.38
2023-05-23T19:16:19.804Z,102419.59
2023-05-23T19:21:22.008Z,102422.38
2023-05-23T19:26:24.079Z,102431.03
2023-05-23T19:31:25.879Z,102438.25
2023-05-23T19:36:27.616Z,102453.19
2023-05-23T19:41:29.287Z,102457.66
2023-05-23T19:46:31.053Z,102454.00
2023-05-23T19:51:32.840Z,102460.34
2023-05-23T19:56:35.973Z,102468.16
2023-05-23T20:01:37.693Z,102467.09
2023-05-23T20:06:39.688Z,102462.03
2023-05-23T20:11:45.630Z,102455.78
2023-05-23T20:16:50.234Z,102449.28
2023-05-23T20:21:52.033Z,102451.06
2023-05-23T20:26:53.778Z,102438.28
2023-05-23T20:31:56.171Z,102442.66
2023-05-23T20:36:57.883Z,102444.13
2023-05-23T20:41:59.788Z,102443.03
2023-05-23T20:47:01.568Z,102444.44
2023-05-23T20:52:03.754Z,102446.50
2023-05-23T20:57:05.699Z,102447.50
2023-05-23T21:02:08.202Z,102448.09
2023-05-23T21:07:09.996Z,102452.06
2023-05-23T21:12:11.634Z,102451.69
2023-05-23T21:17:13.589Z,102446.16
2023-05-23T21:22:15.632Z,102440.25
2023-05-23T21:27:19.392Z,102450.94
2023-05-23T21:32:21.494Z,102435.84
2023-05-23T21:37:23.414Z,102445.66
2023-05-23T21:42:25.628Z,102441.94
2023-05-23T21:47:27.281Z,102450.41
2023-05-23T21:52:28.993Z,102455.84
2023-05-23T21:57:30.906Z,102447.00
2023-05-23T22:02:33.207Z,102448.28
2023-05-23T22:07:35.006Z,102443.59
2023-05-23T22:12:36.799Z,102432.81
2023-05-23T22:17:43.287Z,102426.13
2023-05-23T22:22:45.159Z,102439.28
2023-05-23T22:27:48.977Z,102435.81
2023-05-23T22:32:50.674Z,102434.00
2023-05-23T22:37:52.437Z,102429.50
2023-05-23T22:42:54.050Z,102426.50
2023-05-23T22:47:56.142Z,102425.16
2023-05-23T22:52:58.590Z,102427.44
2023-05-23T22:58:03.623Z,102429.19
2023-05-23T23:03:05.582Z,102425.38
2023-05-23T23:08:07.726Z,102430.91
2023-05-23T23:13:09.457Z,102424.59
2023-05-23T23:18:13.433Z,102425.78
2023-05-23T23:23:15.198Z,102441.25
2023-05-23T23:28:19.856Z,102422.72
2023-05-23T23:33:21.540Z,102420.41
2023-05-23T23:38:23.182Z,102406.78
2023-05-23T23:43:24.796Z,102405.44
2023-05-23T23:48:26.401Z,102397.19
2023-05-23T23:53:28.010Z,102382.66
2023-05-23T23:58:29.660Z,102392.88
